sensor_id;sensor_type;location;lat;lon;timestamp;temperature;humidity
16955;DHT22;8594;52.052;8.354;2023-03-19T00:00:30;13.00;99.90
16955;DHT22;8594;52.052;8.354;2023-03-19T00:02:57;12.90;99.90
16955;DHT22;8594;52.052;8.354;2023-03-19T00:05:25;12.80;99.90
16955;DHT22;8594;52.052;8.354;2023-03-19T00:07:52;12.80;99.90
16955;DHT22;8594;52.052;8.354;2023-03-19T00:10:19;12.60;99.90
16955;DHT22;8594;52.052;8.354;2023-03-19T00:12:46;12.40;99.90
16955;DHT22;8594;52.052;8.354;2023-03-19T00:15:13;12.50;99.90
16955;DHT22;8594;52.052;8.354;2023-03-19T00:17:40;12.70;99.90
16955;DHT22;8594;52.052;8.354;2023-03-19T00:20:08;12.90;99.90
16955;DHT22;8594;52.052;8.354;2023-03-19T00:22:38;13.00;99.90
16955;DHT22;8594;52.052;8.354;2023-03-19T00:25:06;13.00;99.90
16955;DHT22;8594;52.052;8.354;2023-03-19T00:27:34;13.10;99.90
16955;DHT22;8594;52.052;8.354;2023-03-19T00:30:01;12.90;99.90
16955;DHT22;8594;52.052;8.354;2023-03-19T00:32:29;12.70;99.90
16955;DHT22;8594;52.052;8.354;2023-03-19T00:34:57;12.80;99.90
16955;DHT22;8594;52.052;8.354;2023-03-19T00:37:24;12.70;99.90
16955;DHT22;8594;52.052;8.354;2023-03-19T00:39:53;12.70;99.90
16955;DHT22;8594;52.052;8.354;2023-03-19T00:42:20;12.80;99.90
16955;DHT22;8594;52.052;8.354;2023-03-19T00:44:47;12.60;99.90
16955;DHT22;8594;52.052;8.354;2023-03-19T00:47:14;12.40;99.90
16955;DHT22;8594;52.052;8.354;2023-03-19T00:49:41;12.40;99.90
16955;DHT22;8594;52.052;8.354;2023-03-19T00:52:08;12.50;99.90
16955;DHT22;8594;52.052;8.354;2023-03-19T00:54:35;12.40;99.90
16955;DHT22;8594;52.052;8.354;2023-03-19T00:57:03;12.40;99.90
16955;DHT22;8594;52.052;8.354;2023-03-19T00:59:30;12.30;99.90
16955;DHT22;8594;52.052;8.354;2023-03-19T01:01:57;12.30;99.90
16955;DHT22;8594;52.052;8.354;2023-03-19T01:04:24;12.20;99.90
16955;DHT22;8594;52.052;8.354;2023-03-19T01:06:50;12.40;99.90
16955;DHT22;8594;52.052;8.354;2023-03-19T01:09:17;12.60;99.90
16955;DHT22;8594;52.052;8.354;2023-03-19T01:11:44;12.60;99.90
16955;DHT22;8594;52.052;8.354;2023-03-19T01:14:14;12.90;99.90
16955;DHT22;8594;52.052;8.354;2023-03-19T01:16:42;13.00;99.90
16955;DHT22;8594;52.052;8.354;2023-03-19T01:19:09;12.80;99.90
16955;DHT22;8594;52.052;8.354;2023-03-19T01:21:36;12.80;99.90
16955;DHT22;8594;52.052;8.354;2023-03-19T01:24:03;12.80;99.90
16955;DHT22;8594;52.052;8.354;2023-03-19T01:26:30;12.50;99.90
16955;DHT22;8594;52.052;8.354;2023-03-19T01:28:57;12.50;99.90
16955;DHT22;8594;52.052;8.354;2023-03-19T01:31:25;12.50;99.90
16955;DHT22;8594;52.052;8.354;2023-03-19T01:33:52;12.70;99.90
16955;DHT22;8594;52.052;8.354;2023-03-19T01:36:20;12.70;99.90
16955;DHT22;8594;52.052;8.354;2023-03-19T01:38:47;12.80;99.90
16955;DHT22;8594;52.052;8.354;2023-03-19T01:41:14;12.80;99.90
16955;DHT22;8594;52.052;8.354;2023-03-19T01:43:41;12.60;99.90
16955;DHT22;8594;52.052;8.354;2023-03-19T01:46:14;12.60;99.90
16955;DHT22;8594;52.052;8.354;2023-03-19T01:48:50;12.50;99.90
16955;DHT22;8594;52.052;8.354;2023-03-19T01:51:22;12.40;99.90
16955;DHT22;8594;52.052;8.354;2023-03-19T01:53:54;12.30;99.90
16955;DHT22;8594;52.052;8.354;2023-03-19T01:56:27;12.30;99.90
16955;DHT22;8594;52.052;8.354;2023-03-19T01:59:01;12.30;99.90
16955;DHT22;8594;52.052;8.354;2023-03-19T02:01:36;12.30;99.90
16955;DHT22;8594;52.052;8.354;2023-03-19T02:04:10;12.00;99.90
16955;DHT22;8594;52.052;8.354;2023-03-19T02:06:38;12.00;99.90
16955;DHT22;8594;52.052;8.354;2023-03-19T02:09:07;12.10;99.90
16955;DHT22;8594;52.052;8.354;2023-03-19T02:11:35;12.00;99.90
16955;DHT22;8594;52.052;8.354;2023-03-19T02:14:03;12.20;99.90
16955;DHT22;8594;52.052;8.354;2023-03-19T02:16:30;12.00;99.90
16955;DHT22;8594;52.052;8.354;2023-03-19T02:18:57;12.10;99.90
16955;DHT22;8594;52.052;8.354;2023-03-19T02:21:26;12.10;99.90
16955;DHT22;8594;52.052;8.354;2023-03-19T02:24:00;12.10;99.90
16955;DHT22;8594;52.052;8.354;2023-03-19T02:26:32;12.00;99.90
16955;DHT22;8594;52.052;8.354;2023-03-19T02:29:00;12.00;99.90
16955;DHT22;8594;52.052;8.354;2023-03-19T02:31:28;12.00;99.90
16955;DHT22;8594;52.052;8.354;2023-03-19T02:33:59;11.90;99.90
16955;DHT22;8594;52.052;8.354;2023-03-19T02:36:31;12.40;99.90
16955;DHT22;8594;52.052;8.354;2023-03-19T02:39:03;12.40;99.90
16955;DHT22;8594;52.052;8.354;2023-03-19T02:41:36;12.20;99.90
16955;DHT22;8594;52.052;8.354;2023-03-19T02:44:08;12.60;99.90
16955;DHT22;8594;52.052;8.354;2023-03-19T02:46:37;12.40;99.90
16955;DHT22;8594;52.052;8.354;2023-03-19T02:49:04;12.30;99.90
16955;DHT22;8594;52.052;8.354;2023-03-19T02:51:31;12.20;99.90
16955;DHT22;8594;52.052;8.354;2023-03-19T02:53:57;12.00;99.90
16955;DHT22;8594;52.052;8.354;2023-03-19T02:56:25;12.00;99.90
16955;DHT22;8594;52.052;8.354;2023-03-19T02:58:53;12.20;99.90
16955;DHT22;8594;52.052;8.354;2023-03-19T03:01:20;12.00;99.90
16955;DHT22;8594;52.052;8.354;2023-03-19T03:03:47;12.00;99.90
16955;DHT22;8594;52.052;8.354;2023-03-19T03:06:14;12.10;99.90
16955;DHT22;8594;52.052;8.354;2023-03-19T03:08:42;12.20;99.90
16955;DHT22;8594;52.052;8.354;2023-03-19T03:11:09;12.00;99.90
16955;DHT22;8594;52.052;8.354;2023-03-19T03:13:36;11.80;99.90
16955;DHT22;8594;52.052;8.354;2023-03-19T03:16:04;11.80;99.90
16955;DHT22;8594;52.052;8.354;2023-03-19T03:18:33;12.10;99.90
16955;DHT22;8594;52.052;8.354;2023-03-19T03:21:00;11.80;99.90
16955;DHT22;8594;52.052;8.354;2023-03-19T03:23:27;11.50;99.90
16955;DHT22;8594;52.052;8.354;2023-03-19T03:25:54;11.50;99.90
16955;DHT22;8594;52.052;8.354;2023-03-19T03:28:21;11.60;99.90
16955;DHT22;8594;52.052;8.354;2023-03-19T03:30:49;11.60;99.90
16955;DHT22;8594;52.052;8.354;2023-03-19T03:33:17;11.50;99.90
16955;DHT22;8594;52.052;8.354;2023-03-19T03:35:44;11.60;99.90
16955;DHT22;8594;52.052;8.354;2023-03-19T03:38:11;11.60;99.90
16955;DHT22;8594;52.052;8.354;2023-03-19T03:40:38;11.60;99.90
16955;DHT22;8594;52.052;8.354;2023-03-19T03:43:06;11.60;99.90
16955;DHT22;8594;52.052;8.354;2023-03-19T03:45:33;11.60;99.90
16955;DHT22;8594;52.052;8.354;2023-03-19T03:48:00;11.50;99.90
16955;DHT22;8594;52.052;8.354;2023-03-19T03:50:28;11.50;99.90
16955;DHT22;8594;52.052;8.354;2023-03-19T03:52:55;11.50;99.90
16955;DHT22;8594;52.052;8.354;2023-03-19T03:55:22;11.40;99.90
16955;DHT22;8594;52.052;8.354;2023-03-19T03:57:49;11.30;99.90
16955;DHT22;8594;52.052;8.354;2023-03-19T04:00:16;11.40;99.90
16955;DHT22;8594;52.052;8.354;2023-03-19T04:02:44;11.40;99.90
16955;DHT22;8594;52.052;8.354;2023-03-19T04:05:11;11.90;99.90
16955;DHT22;8594;52.052;8.354;2023-03-19T04:07:39;12.20;99.90
16955;DHT22;8594;52.052;8.354;2023-03-19T04:10:07;11.90;99.90
16955;DHT22;8594;52.052;8.354;2023-03-19T04:12:35;11.70;99.90
16955;DHT22;8594;52.052;8.354;2023-03-19T04:15:03;11.50;99.90
16955;DHT22;8594;52.052;8.354;2023-03-19T04:17:32;11.10;99.90
16955;DHT22;8594;52.052;8.354;2023-03-19T04:19:59;10.80;99.90
16955;DHT22;8594;52.052;8.354;2023-03-19T04:22:25;11.10;99.90
16955;DHT22;8594;52.052;8.354;2023-03-19T04:24:54;11.10;99.90
16955;DHT22;8594;52.052;8.354;2023-03-19T04:27:21;11.10;99.90
16955;DHT22;8594;52.052;8.354;2023-03-19T04:29:47;11.10;99.90
16955;DHT22;8594;52.052;8.354;2023-03-19T04:32:15;11.50;99.90
16955;DHT22;8594;52.052;8.354;2023-03-19T04:34:42;11.50;99.90
16955;DHT22;8594;52.052;8.354;2023-03-19T04:37:09;11.70;99.90
16955;DHT22;8594;52.052;8.354;2023-03-19T04:39:36;11.60;99.90
16955;DHT22;8594;52.052;8.354;2023-03-19T04:42:05;11.40;99.90
16955;DHT22;8594;52.052;8.354;2023-03-19T04:44:32;11.30;99.90
16955;DHT22;8594;52.052;8.354;2023-03-19T04:46:59;11.20;99.90
16955;DHT22;8594;52.052;8.354;2023-03-19T04:49:26;11.20;99.90
16955;DHT22;8594;52.052;8.354;2023-03-19T04:51:53;11.10;99.90
16955;DHT22;8594;52.052;8.354;2023-03-19T04:54:20;11.10;99.90
16955;DHT22;8594;52.052;8.354;2023-03-19T04:56:47;11.10;99.90
16955;DHT22;8594;52.052;8.354;2023-03-19T04:59:15;11.10;99.90
16955;DHT22;8594;52.052;8.354;2023-03-19T05:01:42;11.20;99.90
16955;DHT22;8594;52.052;8.354;2023-03-19T05:04:09;11.50;99.90
16955;DHT22;8594;52.052;8.354;2023-03-19T05:06:36;11.10;99.90
16955;DHT22;8594;52.052;8.354;2023-03-19T05:09:04;10.90;99.90
16955;DHT22;8594;52.052;8.354;2023-03-19T05:11:32;11.20;99.90
16955;DHT22;8594;52.052;8.354;2023-03-19T05:13:59;11.20;99.90
16955;DHT22;8594;52.052;8.354;2023-03-19T05:16:27;10.70;99.90
16955;DHT22;8594;52.052;8.354;2023-03-19T05:18:55;10.50;99.90
16955;DHT22;8594;52.052;8.354;2023-03-19T05:21:22;10.50;99.90
16955;DHT22;8594;52.052;8.354;2023-03-19T05:23:48;10.70;99.90
16955;DHT22;8594;52.052;8.354;2023-03-19T05:26:17;10.80;99.90
16955;DHT22;8594;52.052;8.354;2023-03-19T05:28:44;10.80;99.90
16955;DHT22;8594;52.052;8.354;2023-03-19T05:31:10;11.10;99.90
16955;DHT22;8594;52.052;8.354;2023-03-19T05:33:39;11.20;99.90
16955;DHT22;8594;52.052;8.354;2023-03-19T05:36:06;10.90;99.90
16955;DHT22;8594;52.052;8.354;2023-03-19T05:38:33;10.70;99.90
16955;DHT22;8594;52.052;8.354;2023-03-19T05:41:03;10.60;99.90
16955;DHT22;8594;52.052;8.354;2023-03-19T05:43:30;10.60;99.90
16955;DHT22;8594;52.052;8.354;2023-03-19T05:45:57;10.50;99.90
16955;DHT22;8594;52.052;8.354;2023-03-19T05:48:24;10.40;99.90
16955;DHT22;8594;52.052;8.354;2023-03-19T05:50:53;10.20;99.90
16955;DHT22;8594;52.052;8.354;2023-03-19T05:53:21;10.30;99.90
16955;DHT22;8594;52.052;8.354;2023-03-19T05:55:48;10.20;99.90
16955;DHT22;8594;52.052;8.354;2023-03-19T05:58:15;10.40;99.90
16955;DHT22;8594;52.052;8.354;2023-03-19T06:00:42;10.40;99.90
16955;DHT22;8594;52.052;8.354;2023-03-19T06:03:09;10.30;99.90
16955;DHT22;8594;52.052;8.354;2023-03-19T06:05:37;10.40;99.90
16955;DHT22;8594;52.052;8.354;2023-03-19T06:08:05;10.40;99.90
16955;DHT22;8594;52.052;8.354;2023-03-19T06:10:33;10.80;99.90
16955;DHT22;8594;52.052;8.354;2023-03-19T06:13:00;10.90;99.90
16955;DHT22;8594;52.052;8.354;2023-03-19T06:15:27;10.80;99.90
16955;DHT22;8594;52.052;8.354;2023-03-19T06:17:54;10.60;99.90
16955;DHT22;8594;52.052;8.354;2023-03-19T06:20:20;10.90;99.90
16955;DHT22;8594;52.052;8.354;2023-03-19T06:22:48;10.80;99.90
16955;DHT22;8594;52.052;8.354;2023-03-19T06:25:16;10.70;99.90
16955;DHT22;8594;52.052;8.354;2023-03-19T06:27:43;10.80;99.90
16955;DHT22;8594;52.052;8.354;2023-03-19T06:30:10;10.90;99.90
16955;DHT22;8594;52.052;8.354;2023-03-19T06:32:38;10.90;99.90
16955;DHT22;8594;52.052;8.354;2023-03-19T06:35:05;11.40;99.90
16955;DHT22;8594;52.052;8.354;2023-03-19T06:37:33;11.50;99.90
16955;DHT22;8594;52.052;8.354;2023-03-19T06:40:00;11.90;99.90
16955;DHT22;8594;52.052;8.354;2023-03-19T06:42:28;12.20;99.90
16955;DHT22;8594;52.052;8.354;2023-03-19T06:44:56;12.40;99.90
16955;DHT22;8594;52.052;8.354;2023-03-19T06:47:22;12.70;99.90
16955;DHT22;8594;52.052;8.354;2023-03-19T06:49:50;13.00;99.90
16955;DHT22;8594;52.052;8.354;2023-03-19T06:52:17;13.00;99.90
16955;DHT22;8594;52.052;8.354;2023-03-19T06:54:44;13.10;99.90
16955;DHT22;8594;52.052;8.354;2023-03-19T06:57:10;13.20;99.90
16955;DHT22;8594;52.052;8.354;2023-03-19T06:59:39;13.20;99.90
16955;DHT22;8594;52.052;8.354;2023-03-19T07:02:06;13.00;99.90
16955;DHT22;8594;52.052;8.354;2023-03-19T07:04:35;12.90;99.90
16955;DHT22;8594;52.052;8.354;2023-03-19T07:07:02;12.90;99.90
16955;DHT22;8594;52.052;8.354;2023-03-19T07:09:30;12.80;99.90
16955;DHT22;8594;52.052;8.354;2023-03-19T07:11:57;12.90;99.90
16955;DHT22;8594;52.052;8.354;2023-03-19T07:14:24;12.80;99.90
16955;DHT22;8594;52.052;8.354;2023-03-19T07:16:52;12.70;99.90
16955;DHT22;8594;52.052;8.354;2023-03-19T07:19:19;12.90;99.90
16955;DHT22;8594;52.052;8.354;2023-03-19T07:21:46;13.00;99.90
16955;DHT22;8594;52.052;8.354;2023-03-19T07:24:13;12.90;99.90
16955;DHT22;8594;52.052;8.354;2023-03-19T07:26:40;13.10;99.90
16955;DHT22;8594;52.052;8.354;2023-03-19T07:29:09;13.40;99.90
16955;DHT22;8594;52.052;8.354;2023-03-19T07:31:36;13.60;99.90
16955;DHT22;8594;52.052;8.354;2023-03-19T07:34:05;13.60;99.90
16955;DHT22;8594;52.052;8.354;2023-03-19T07:36:31;13.90;99.90
16955;DHT22;8594;52.052;8.354;2023-03-19T07:38:58;14.30;99.90
16955;DHT22;8594;52.052;8.354;2023-03-19T07:41:25;15.00;99.90
16955;DHT22;8594;52.052;8.354;2023-03-19T07:43:55;15.30;99.90
16955;DHT22;8594;52.052;8.354;2023-03-19T07:46:23;15.50;99.90
16955;DHT22;8594;52.052;8.354;2023-03-19T07:48:50;15.40;99.90
16955;DHT22;8594;52.052;8.354;2023-03-19T07:51:18;15.40;99.90
16955;DHT22;8594;52.052;8.354;2023-03-19T07:53:45;15.60;99.90
16955;DHT22;8594;52.052;8.354;2023-03-19T07:56:12;15.60;99.90
16955;DHT22;8594;52.052;8.354;2023-03-19T07:58:39;15.60;99.90
16955;DHT22;8594;52.052;8.354;2023-03-19T08:01:07;15.40;99.90
16955;DHT22;8594;52.052;8.354;2023-03-19T08:03:33;15.40;99.90
16955;DHT22;8594;52.052;8.354;2023-03-19T08:06:00;15.40;99.90
16955;DHT22;8594;52.052;8.354;2023-03-19T08:08:29;15.50;99.90
16955;DHT22;8594;52.052;8.354;2023-03-19T08:10:59;15.40;99.90
16955;DHT22;8594;52.052;8.354;2023-03-19T08:13:26;15.40;99.90
16955;DHT22;8594;52.052;8.354;2023-03-19T08:15:53;15.40;99.90
16955;DHT22;8594;52.052;8.354;2023-03-19T08:18:21;15.50;99.90
16955;DHT22;8594;52.052;8.354;2023-03-19T08:20:48;16.40;99.90
16955;DHT22;8594;52.052;8.354;2023-03-19T08:23:15;16.80;99.90
16955;DHT22;8594;52.052;8.354;2023-03-19T08:25:44;16.50;99.90
16955;DHT22;8594;52.052;8.354;2023-03-19T08:28:11;16.30;99.90
16955;DHT22;8594;52.052;8.354;2023-03-19T08:30:38;16.20;99.90
16955;DHT22;8594;52.052;8.354;2023-03-19T08:33:05;16.30;99.90
16955;DHT22;8594;52.052;8.354;2023-03-19T08:35:33;16.00;99.90
16955;DHT22;8594;52.052;8.354;2023-03-19T08:38:00;15.90;99.90
16955;DHT22;8594;52.052;8.354;2023-03-19T08:40:27;15.70;99.90
16955;DHT22;8594;52.052;8.354;2023-03-19T08:42:55;15.40;99.90
16955;DHT22;8594;52.052;8.354;2023-03-19T08:45:22;15.50;99.90
16955;DHT22;8594;52.052;8.354;2023-03-19T08:47:50;15.80;99.90
16955;DHT22;8594;52.052;8.354;2023-03-19T08:50:17;15.70;99.90
16955;DHT22;8594;52.052;8.354;2023-03-19T08:52:44;15.90;99.90
16955;DHT22;8594;52.052;8.354;2023-03-19T08:55:11;15.70;99.90
16955;DHT22;8594;52.052;8.354;2023-03-19T08:57:38;15.70;99.90
16955;DHT22;8594;52.052;8.354;2023-03-19T09:00:08;16.00;99.90
16955;DHT22;8594;52.052;8.354;2023-03-19T09:02:35;16.10;99.90
16955;DHT22;8594;52.052;8.354;2023-03-19T09:05:02;16.40;99.90
16955;DHT22;8594;52.052;8.354;2023-03-19T09:07:29;15.90;99.90
16955;DHT22;8594;52.052;8.354;2023-03-19T09:09:56;15.80;99.90
16955;DHT22;8594;52.052;8.354;2023-03-19T09:12:23;15.80;99.90
16955;DHT22;8594;52.052;8.354;2023-03-19T09:14:50;15.80;99.90
16955;DHT22;8594;52.052;8.354;2023-03-19T09:17:19;15.50;99.90
16955;DHT22;8594;52.052;8.354;2023-03-19T09:19:45;15.70;99.90
16955;DHT22;8594;52.052;8.354;2023-03-19T09:22:12;15.70;99.90
16955;DHT22;8594;52.052;8.354;2023-03-19T09:24:39;15.50;99.90
16955;DHT22;8594;52.052;8.354;2023-03-19T09:27:07;15.50;99.90
16955;DHT22;8594;52.052;8.354;2023-03-19T09:29:34;15.50;99.90
16955;DHT22;8594;52.052;8.354;2023-03-19T09:32:01;15.60;99.90
16955;DHT22;8594;52.052;8.354;2023-03-19T09:34:29;15.50;99.90
16955;DHT22;8594;52.052;8.354;2023-03-19T09:36:56;15.60;99.90
16955;DHT22;8594;52.052;8.354;2023-03-19T09:39:23;15.30;99.90
16955;DHT22;8594;52.052;8.354;2023-03-19T09:41:59;15.20;99.90
16955;DHT22;8594;52.052;8.354;2023-03-19T09:44:37;15.20;99.90
16955;DHT22;8594;52.052;8.354;2023-03-19T09:47:21;15.40;99.90
16955;DHT22;8594;52.052;8.354;2023-03-19T09:49:54;15.60;99.90
16955;DHT22;8594;52.052;8.354;2023-03-19T09:52:33;15.80;99.90
16955;DHT22;8594;52.052;8.354;2023-03-19T09:55:14;16.10;99.90
16955;DHT22;8594;52.052;8.354;2023-03-19T09:57:51;16.40;99.90
16955;DHT22;8594;52.052;8.354;2023-03-19T10:00:22;17.00;99.90
16955;DHT22;8594;52.052;8.354;2023-03-19T10:02:55;17.40;99.90
16955;DHT22;8594;52.052;8.354;2023-03-19T10:05:36;17.50;99.90
16955;DHT22;8594;52.052;8.354;2023-03-19T10:08:25;17.30;99.90
16955;DHT22;8594;52.052;8.354;2023-03-19T10:11:31;17.10;99.90
16955;DHT22;8594;52.052;8.354;2023-03-19T10:14:19;17.40;99.90
16955;DHT22;8594;52.052;8.354;2023-03-19T10:17:03;17.20;99.90
16955;DHT22;8594;52.052;8.354;2023-03-19T10:19:39;17.40;99.90
16955;DHT22;8594;52.052;8.354;2023-03-19T10:22:14;17.30;99.90
16955;DHT22;8594;52.052;8.354;2023-03-19T10:24:45;17.40;99.90
16955;DHT22;8594;52.052;8.354;2023-03-19T10:27:16;17.30;99.90
16955;DHT22;8594;52.052;8.354;2023-03-19T10:29:44;17.00;99.90
16955;DHT22;8594;52.052;8.354;2023-03-19T10:32:16;16.90;99.90
16955;DHT22;8594;52.052;8.354;2023-03-19T10:34:45;16.80;99.90
16955;DHT22;8594;52.052;8.354;2023-03-19T10:37:17;16.70;99.90
16955;DHT22;8594;52.052;8.354;2023-03-19T10:39:47;16.70;99.90
16955;DHT22;8594;52.052;8.354;2023-03-19T10:45:19;15.90;99.90
16955;DHT22;8594;52.052;8.354;2023-03-19T10:47:50;16.10;99.90
16955;DHT22;8594;52.052;8.354;2023-03-19T10:50:19;16.20;99.90
16955;DHT22;8594;52.052;8.354;2023-03-19T10:52:51;16.10;99.90
16955;DHT22;8594;52.052;8.354;2023-03-19T10:55:25;15.70;99.90
16955;DHT22;8594;52.052;8.354;2023-03-19T10:58:02;15.90;99.90
16955;DHT22;8594;52.052;8.354;2023-03-19T11:00:32;15.60;99.90
16955;DHT22;8594;52.052;8.354;2023-03-19T11:03:00;15.50;99.90
16955;DHT22;8594;52.052;8.354;2023-03-19T11:05:30;16.10;99.90
16955;DHT22;8594;52.052;8.354;2023-03-19T11:08:02;16.30;99.90
16955;DHT22;8594;52.052;8.354;2023-03-19T11:10:33;16.40;99.90
16955;DHT22;8594;52.052;8.354;2023-03-19T11:13:04;16.40;99.90
16955;DHT22;8594;52.052;8.354;2023-03-19T11:15:34;16.00;99.90
16955;DHT22;8594;52.052;8.354;2023-03-19T11:18:13;15.80;99.90
16955;DHT22;8594;52.052;8.354;2023-03-19T11:20:48;15.90;99.90
16955;DHT22;8594;52.052;8.354;2023-03-19T11:23:24;15.80;99.90
16955;DHT22;8594;52.052;8.354;2023-03-19T11:25:54;15.70;99.90
16955;DHT22;8594;52.052;8.354;2023-03-19T11:28:25;16.00;99.90
16955;DHT22;8594;52.052;8.354;2023-03-19T11:31:00;16.20;99.90
16955;DHT22;8594;52.052;8.354;2023-03-19T11:33:54;16.40;99.90
16955;DHT22;8594;52.052;8.354;2023-03-19T11:36:29;16.90;99.90
16955;DHT22;8594;52.052;8.354;2023-03-19T11:39:14;17.00;99.90
16955;DHT22;8594;52.052;8.354;2023-03-19T11:45:01;17.60;99.90
16955;DHT22;8594;52.052;8.354;2023-03-19T11:47:45;17.70;99.90
16955;DHT22;8594;52.052;8.354;2023-03-19T11:50:24;17.60;99.90
16955;DHT22;8594;52.052;8.354;2023-03-19T11:53:21;17.50;99.90
16955;DHT22;8594;52.052;8.354;2023-03-19T11:56:01;17.30;99.90
16955;DHT22;8594;52.052;8.354;2023-03-19T11:59:08;17.00;99.90
16955;DHT22;8594;52.052;8.354;2023-03-19T12:02:16;17.20;99.90
16955;DHT22;8594;52.052;8.354;2023-03-19T12:05:16;17.60;99.90
16955;DHT22;8594;52.052;8.354;2023-03-19T12:07:57;17.60;99.90
16955;DHT22;8594;52.052;8.354;2023-03-19T12:10:47;17.50;99.90
16955;DHT22;8594;52.052;8.354;2023-03-19T12:13:28;17.30;99.90
16955;DHT22;8594;52.052;8.354;2023-03-19T12:16:11;17.60;99.90
16955;DHT22;8594;52.052;8.354;2023-03-19T12:19:02;18.00;99.90
16955;DHT22;8594;52.052;8.354;2023-03-19T12:21:48;18.10;99.90
16955;DHT22;8594;52.052;8.354;2023-03-19T12:24:30;18.00;99.90
16955;DHT22;8594;52.052;8.354;2023-03-19T12:27:16;18.20;99.90
16955;DHT22;8594;52.052;8.354;2023-03-19T12:29:57;18.20;99.90
16955;DHT22;8594;52.052;8.354;2023-03-19T12:32:44;18.20;99.90
16955;DHT22;8594;52.052;8.354;2023-03-19T12:35:28;18.00;99.90
16955;DHT22;8594;52.052;8.354;2023-03-19T12:38:01;18.20;99.90
16955;DHT22;8594;52.052;8.354;2023-03-19T12:40:35;18.30;99.90
16955;DHT22;8594;52.052;8.354;2023-03-19T12:43:18;18.20;99.90
16955;DHT22;8594;52.052;8.354;2023-03-19T12:45:55;18.20;99.90
16955;DHT22;8594;52.052;8.354;2023-03-19T12:48:28;18.60;99.90
16955;DHT22;8594;52.052;8.354;2023-03-19T12:51:03;18.60;99.90
16955;DHT22;8594;52.052;8.354;2023-03-19T12:53:42;18.40;99.90
16955;DHT22;8594;52.052;8.354;2023-03-19T12:56:18;18.00;99.90
16955;DHT22;8594;52.052;8.354;2023-03-19T12:58:53;18.00;99.90
16955;DHT22;8594;52.052;8.354;2023-03-19T13:01:29;18.10;99.90
16955;DHT22;8594;52.052;8.354;2023-03-19T13:04:05;18.30;99.90
16955;DHT22;8594;52.052;8.354;2023-03-19T13:06:37;18.50;99.90
16955;DHT22;8594;52.052;8.354;2023-03-19T13:09:13;18.50;99.90
16955;DHT22;8594;52.052;8.354;2023-03-19T13:11:49;18.20;99.90
16955;DHT22;8594;52.052;8.354;2023-03-19T13:14:25;18.20;99.90
16955;DHT22;8594;52.052;8.354;2023-03-19T13:17:07;18.40;99.90
16955;DHT22;8594;52.052;8.354;2023-03-19T13:19:44;17.80;99.90
16955;DHT22;8594;52.052;8.354;2023-03-19T13:22:18;17.70;99.90
16955;DHT22;8594;52.052;8.354;2023-03-19T13:24:48;17.70;99.90
16955;DHT22;8594;52.052;8.354;2023-03-19T13:27:20;17.50;99.90
16955;DHT22;8594;52.052;8.354;2023-03-19T13:29:57;17.40;99.90
16955;DHT22;8594;52.052;8.354;2023-03-19T13:32:35;17.60;99.90
16955;DHT22;8594;52.052;8.354;2023-03-19T13:35:26;17.40;99.90
16955;DHT22;8594;52.052;8.354;2023-03-19T13:38:00;17.60;99.90
16955;DHT22;8594;52.052;8.354;2023-03-19T13:40:40;17.80;99.90
16955;DHT22;8594;52.052;8.354;2023-03-19T13:43:39;17.50;99.90
16955;DHT22;8594;52.052;8.354;2023-03-19T13:46:39;17.50;99.90
16955;DHT22;8594;52.052;8.354;2023-03-19T13:49:28;17.80;99.90
16955;DHT22;8594;52.052;8.354;2023-03-19T13:52:00;17.80;99.90
16955;DHT22;8594;52.052;8.354;2023-03-19T13:54:35;18.00;99.90
16955;DHT22;8594;52.052;8.354;2023-03-19T13:57:19;18.10;99.90
16955;DHT22;8594;52.052;8.354;2023-03-19T14:03:25;18.70;99.90
16955;DHT22;8594;52.052;8.354;2023-03-19T14:05:56;18.10;99.90
16955;DHT22;8594;52.052;8.354;2023-03-19T14:08:25;18.30;99.90
16955;DHT22;8594;52.052;8.354;2023-03-19T14:10:59;18.40;99.90
16955;DHT22;8594;52.052;8.354;2023-03-19T14:13:32;18.40;99.90
16955;DHT22;8594;52.052;8.354;2023-03-19T14:16:06;18.70;99.90
16955;DHT22;8594;52.052;8.354;2023-03-19T14:18:42;18.30;99.90
16955;DHT22;8594;52.052;8.354;2023-03-19T14:21:13;18.20;99.90
16955;DHT22;8594;52.052;8.354;2023-03-19T14:23:51;18.30;99.90
16955;DHT22;8594;52.052;8.354;2023-03-19T14:26:21;18.00;99.90
16955;DHT22;8594;52.052;8.354;2023-03-19T14:28:58;18.10;99.90
16955;DHT22;8594;52.052;8.354;2023-03-19T14:31:32;18.20;99.90
16955;DHT22;8594;52.052;8.354;2023-03-19T14:34:17;18.20;99.90
16955;DHT22;8594;52.052;8.354;2023-03-19T14:36:50;18.00;99.90
16955;DHT22;8594;52.052;8.354;2023-03-19T14:39:23;17.90;99.90
16955;DHT22;8594;52.052;8.354;2023-03-19T14:41:59;17.90;99.90
16955;DHT22;8594;52.052;8.354;2023-03-19T14:48:04;17.90;99.90
16955;DHT22;8594;52.052;8.354;2023-03-19T14:51:15;18.00;99.90
16955;DHT22;8594;52.052;8.354;2023-03-19T14:53:52;17.70;99.90
16955;DHT22;8594;52.052;8.354;2023-03-19T14:56:25;17.60;99.90
16955;DHT22;8594;52.052;8.354;2023-03-19T14:58:57;17.70;99.90
16955;DHT22;8594;52.052;8.354;2023-03-19T15:01:29;17.40;99.90
16955;DHT22;8594;52.052;8.354;2023-03-19T15:03:59;17.30;99.90
16955;DHT22;8594;52.052;8.354;2023-03-19T15:06:32;17.40;99.90
16955;DHT22;8594;52.052;8.354;2023-03-19T15:09:04;17.60;99.90
16955;DHT22;8594;52.052;8.354;2023-03-19T15:11:44;17.50;99.90
16955;DHT22;8594;52.052;8.354;2023-03-19T15:14:52;17.50;99.90
16955;DHT22;8594;52.052;8.354;2023-03-19T15:17:34;17.40;99.90
16955;DHT22;8594;52.052;8.354;2023-03-19T15:20:12;17.30;99.90
16955;DHT22;8594;52.052;8.354;2023-03-19T15:22:44;17.30;99.90
16955;DHT22;8594;52.052;8.354;2023-03-19T15:25:21;17.40;99.90
16955;DHT22;8594;52.052;8.354;2023-03-19T15:28:07;17.10;99.90
16955;DHT22;8594;52.052;8.354;2023-03-19T15:30:36;17.00;99.90
16955;DHT22;8594;52.052;8.354;2023-03-19T15:33:03;17.10;99.90
16955;DHT22;8594;52.052;8.354;2023-03-19T15:35:42;17.20;99.90
16955;DHT22;8594;52.052;8.354;2023-03-19T15:38:11;17.10;99.90
16955;DHT22;8594;52.052;8.354;2023-03-19T15:40:43;17.00;99.90
16955;DHT22;8594;52.052;8.354;2023-03-19T15:43:11;17.20;99.90
16955;DHT22;8594;52.052;8.354;2023-03-19T15:45:41;17.00;99.90
16955;DHT22;8594;52.052;8.354;2023-03-19T15:48:17;17.10;99.90
16955;DHT22;8594;52.052;8.354;2023-03-19T15:50:49;17.10;99.90
16955;DHT22;8594;52.052;8.354;2023-03-19T15:53:23;17.20;99.90
16955;DHT22;8594;52.052;8.354;2023-03-19T15:55:55;17.00;99.90
16955;DHT22;8594;52.052;8.354;2023-03-19T15:58:24;16.90;99.90
16955;DHT22;8594;52.052;8.354;2023-03-19T16:00:54;16.90;99.90
16955;DHT22;8594;52.052;8.354;2023-03-19T16:03:26;16.70;99.90
16955;DHT22;8594;52.052;8.354;2023-03-19T16:06:01;16.80;99.90
16955;DHT22;8594;52.052;8.354;2023-03-19T16:08:30;16.70;99.90
16955;DHT22;8594;52.052;8.354;2023-03-19T16:11:14;16.60;99.90
16955;DHT22;8594;52.052;8.354;2023-03-19T16:13:56;16.70;99.90
16955;DHT22;8594;52.052;8.354;2023-03-19T16:16:28;16.70;99.90
16955;DHT22;8594;52.052;8.354;2023-03-19T16:18:58;16.80;99.90
16955;DHT22;8594;52.052;8.354;2023-03-19T16:21:31;16.80;99.90
16955;DHT22;8594;52.052;8.354;2023-03-19T16:24:02;16.60;99.90